sensor_id;sensor_type;location;lat;lon;timestamp;pressure;altitude;pressure_sealevel;temperature;humidity
6532;BME280;3299;42.004;24.868;2023-04-02T00:01:26;97315.69;;;11.83;68.20
6532;BME280;3299;42.004;24.868;2023-04-02T00:04:10;97283.25;;;11.60;68.88
6532;BME280;3299;42.004;24.868;2023-04-02T00:06:38;97314.91;;;11.73;69.31
6532;BME280;3299;42.004;24.868;2023-04-02T00:11:40;97225.75;;;11.28;69.67
6532;BME280;3299;42.004;24.868;2023-04-02T00:16:40;97275.88;;;11.55;69.73
6532;BME280;3299;42.004;24.868;2023-04-02T00:19:10;97272.34;;;11.47;69.88
6532;BME280;3299;42.004;24.868;2023-04-02T00:21:38;97287.63;;;11.40;69.94
6532;BME280;3299;42.004;24.868;2023-04-02T00:24:13;97251.13;;;11.15;70.16
6532;BME280;3299;42.004;24.868;2023-04-02T00:26:44;97262.97;;;11.17;69.82
6532;BME280;3299;42.004;24.868;2023-04-02T00:29:12;97294.44;;;11.41;68.28
6532;BME280;3299;42.004;24.868;2023-04-02T00:31:42;97293.19;;;11.36;68.43
6532;BME280;3299;42.004;24.868;2023-04-02T00:34:31;97300.97;;;11.36;67.76
6532;BME280;3299;42.004;24.868;2023-04-02T00:36:58;97310.53;;;11.45;67.18
6532;BME280;3299;42.004;24.868;2023-04-02T00:39:25;97290.91;;;11.33;66.60
6532;BME280;3299;42.004;24.868;2023-04-02T00:41:56;97278.75;;;11.24;67.25
6532;BME280;3299;42.004;24.868;2023-04-02T00:44:40;97288.16;;;11.06;69.48
6532;BME280;3299;42.004;24.868;2023-04-02T00:47:23;97312.53;;;11.13;70.09
6532;BME280;3299;42.004;24.868;2023-04-02T00:49:58;97250.00;;;10.70;70.53
6532;BME280;3299;42.004;24.868;2023-04-02T00:52:28;97297.94;;;10.74;71.53
6532;BME280;3299;42.004;24.868;2023-04-02T00:57:21;97247.25;;;10.62;67.97
6532;BME280;3299;42.004;24.868;2023-04-02T01:00:03;97267.13;;;10.71;69.49
6532;BME280;3299;42.004;24.868;2023-04-02T01:02:34;97277.25;;;10.93;68.58
6532;BME280;3299;42.004;24.868;2023-04-02T01:05:22;97292.50;;;10.96;68.63
6532;BME280;3299;42.004;24.868;2023-04-02T01:10:46;97216.88;;;10.45;68.48
6532;BME280;3299;42.004;24.868;2023-04-02T01:16:16;97299.78;;;10.62;71.11
6532;BME280;3299;42.004;24.868;2023-04-02T01:22:03;97314.31;;;10.93;67.54
6532;BME280;3299;42.004;24.868;2023-04-02T01:24:33;97308.84;;;10.87;67.99
6532;BME280;3299;42.004;24.868;2023-04-02T01:27:04;97275.03;;;10.69;68.38
6532;BME280;3299;42.004;24.868;2023-04-02T01:29:36;97316.31;;;10.90;68.30
6532;BME280;3299;42.004;24.868;2023-04-02T01:32:09;97273.94;;;10.62;68.98
6532;BME280;3299;42.004;24.868;2023-04-02T01:34:36;97290.16;;;10.64;69.52
6532;BME280;3299;42.004;24.868;2023-04-02T01:37:38;97316.91;;;10.54;70.11
6532;BME280;3299;42.004;24.868;2023-04-02T01:45:18;97277.91;;;10.27;71.16
6532;BME280;3299;42.004;24.868;2023-04-02T01:47:47;97287.91;;;10.41;71.36
6532;BME280;3299;42.004;24.868;2023-04-02T01:52:51;97238.34;;;9.76;70.58
6532;BME280;3299;42.004;24.868;2023-04-02T01:55:45;97317.34;;;10.19;71.19
6532;BME280;3299;42.004;24.868;2023-04-02T01:58:09;97279.78;;;9.95;71.16
6532;BME280;3299;42.004;24.868;2023-04-02T02:01:00;97279.78;;;9.95;71.03
6532;BME280;3299;42.004;24.868;2023-04-02T02:03:25;97337.78;;;10.32;71.19
6532;BME280;3299;42.004;24.868;2023-04-02T02:05:50;97312.13;;;10.10;72.25
6532;BME280;3299;42.004;24.868;2023-04-02T02:10:59;97326.84;;;10.19;72.63
6532;BME280;3299;42.004;24.868;2023-04-02T02:13:25;97279.25;;;9.71;73.41
6532;BME280;3299;42.004;24.868;2023-04-02T02:15:51;97321.69;;;9.98;74.25
6532;BME280;3299;42.004;24.868;2023-04-02T02:18:20;97238.88;;;9.50;74.31
6532;BME280;3299;42.004;24.868;2023-04-02T02:20:51;97231.03;;;9.51;74.76
6532;BME280;3299;42.004;24.868;2023-04-02T02:23:18;97256.56;;;9.54;75.94
6532;BME280;3299;42.004;24.868;2023-04-02T02:25:45;97259.31;;;9.62;74.91
6532;BME280;3299;42.004;24.868;2023-04-02T02:30:53;97211.72;;;9.55;75.14
6532;BME280;3299;42.004;24.868;2023-04-02T02:33:29;97270.34;;;9.84;75.29
6532;BME280;3299;42.004;24.868;2023-04-02T02:41:15;97296.66;;;9.99;75.92
6532;BME280;3299;42.004;24.868;2023-04-02T02:43:49;97284.44;;;10.01;74.58
6532;BME280;3299;42.004;24.868;2023-04-02T02:46:18;97245.38;;;9.94;69.34
6532;BME280;3299;42.004;24.868;2023-04-02T02:48:45;97210.09;;;9.84;67.90
6532;BME280;3299;42.004;24.868;2023-04-02T02:51:19;97260.16;;;10.13;67.69
6532;BME280;3299;42.004;24.868;2023-04-02T02:53:50;97272.28;;;10.52;64.00
6532;BME280;3299;42.004;24.868;2023-04-02T02:56:19;97254.53;;;10.38;64.47
6532;BME280;3299;42.004;24.868;2023-04-02T02:58:47;97287.38;;;10.56;66.25
6532;BME280;3299;42.004;24.868;2023-04-02T03:01:15;97267.63;;;10.46;67.57
6532;BME280;3299;42.004;24.868;2023-04-02T03:03:43;97266.69;;;10.47;66.67
6532;BME280;3299;42.004;24.868;2023-04-02T03:06:15;97280.19;;;10.60;62.66
6532;BME280;3299;42.004;24.868;2023-04-02T03:09:10;97263.97;;;10.48;62.47
6532;BME280;3299;42.004;24.868;2023-04-02T03:11:43;97294.91;;;10.69;61.73
6532;BME280;3299;42.004;24.868;2023-04-02T03:14:31;97308.84;;;10.87;61.70
6532;BME280;3299;42.004;24.868;2023-04-02T03:17:19;97296.03;;;10.95;61.71
6532;BME280;3299;42.004;24.868;2023-04-02T03:19:57;97301.72;;;10.70;62.23
6532;BME280;3299;42.004;24.868;2023-04-02T03:22:37;97299.38;;;10.67;61.94
6532;BME280;3299;42.004;24.868;2023-04-02T03:27:48;97306.94;;;10.89;61.77
6532;BME280;3299;42.004;24.868;2023-04-02T03:33:12;97314.56;;;11.00;61.20
6532;BME280;3299;42.004;24.868;2023-04-02T03:35:43;97263.88;;;10.59;60.46
6532;BME280;3299;42.004;24.868;2023-04-02T03:38:42;97328.63;;;11.07;60.37
6532;BME280;3299;42.004;24.868;2023-04-02T03:41:20;97294.63;;;10.72;60.97
6532;BME280;3299;42.004;24.868;2023-04-02T03:43:51;97336.25;;;10.99;61.04
6532;BME280;3299;42.004;24.868;2023-04-02T03:46:38;97301.16;;;10.66;61.10
6532;BME280;3299;42.004;24.868;2023-04-02T03:49:18;97315.88;;;10.75;60.19
6532;BME280;3299;42.004;24.868;2023-04-02T03:52:00;97348.03;;;10.73;63.78
6532;BME280;3299;42.004;24.868;2023-04-02T03:54:27;97291.78;;;10.26;64.24
6532;BME280;3299;42.004;24.868;2023-04-02T03:56:52;97313.66;;;10.52;62.43
6532;BME280;3299;42.004;24.868;2023-04-02T04:02:37;97303.75;;;10.57;61.83
6532;BME280;3299;42.004;24.868;2023-04-02T04:05:04;97237.75;;;10.23;61.60
6532;BME280;3299;42.004;24.868;2023-04-02T04:07:36;97319.41;;;10.65;62.25
6532;BME280;3299;42.004;24.868;2023-04-02T04:10:05;97238.44;;;10.25;61.02
6532;BME280;3299;42.004;24.868;2023-04-02T04:12:39;97245.94;;;10.28;60.66
6532;BME280;3299;42.004;24.868;2023-04-02T04:23:18;97334.19;;;10.93;60.42
6532;BME280;3299;42.004;24.868;2023-04-02T04:25:44;97290.53;;;10.60;59.95
6532;BME280;3299;42.004;24.868;2023-04-02T04:28:24;97297.72;;;10.56;61.41
6532;BME280;3299;42.004;24.868;2023-04-02T04:31:02;97291.94;;;10.73;61.68
6532;BME280;3299;42.004;24.868;2023-04-02T04:33:33;97317.44;;;10.97;60.82
6532;BME280;3299;42.004;24.868;2023-04-02T04:36:05;97348.25;;;11.19;60.75
6532;BME280;3299;42.004;24.868;2023-04-02T04:38:41;97345.69;;;11.28;59.75
6532;BME280;3299;42.004;24.868;2023-04-02T04:41:15;97320.84;;;11.07;60.23
6532;BME280;3299;42.004;24.868;2023-04-02T04:44:00;97324.69;;;11.12;60.76
6532;BME280;3299;42.004;24.868;2023-04-02T04:46:31;97361.06;;;11.20;60.73
6532;BME280;3299;42.004;24.868;2023-04-02T04:51:56;97320.03;;;11.06;59.46
6532;BME280;3299;42.004;24.868;2023-04-02T04:54:27;97339.13;;;11.34;58.02
6532;BME280;3299;42.004;24.868;2023-04-02T04:56:59;97329.88;;;11.31;57.94
6532;BME280;3299;42.004;24.868;2023-04-02T04:59:39;97309.41;;;11.19;59.56
6532;BME280;3299;42.004;24.868;2023-04-02T05:02:15;97321.69;;;11.17;60.46
6532;BME280;3299;42.004;24.868;2023-04-02T05:04:47;97289.22;;;10.75;63.15
6532;BME280;3299;42.004;24.868;2023-04-02T05:07:17;97337.00;;;10.80;65.24
6532;BME280;3299;42.004;24.868;2023-04-02T05:20:45;97363.72;;;10.41;69.21
6532;BME280;3299;42.004;24.868;2023-04-02T05:23:25;97361.53;;;10.46;68.31
6532;BME280;3299;42.004;24.868;2023-04-02T05:28:51;97397.59;;;10.78;67.83
6532;BME280;3299;42.004;24.868;2023-04-02T05:31:24;97387.25;;;10.78;68.24
6532;BME280;3299;42.004;24.868;2023-04-02T05:33:53;97346.31;;;10.53;68.53
6532;BME280;3299;42.004;24.868;2023-04-02T05:36:25;97340.28;;;10.43;68.13
6532;BME280;3299;42.004;24.868;2023-04-02T05:38:52;97332.88;;;10.59;67.37
6532;BME280;3299;42.004;24.868;2023-04-02T05:47:15;97398.28;;;11.38;62.46
6532;BME280;3299;42.004;24.868;2023-04-02T05:52:40;97329.56;;;11.06;64.46
6532;BME280;3299;42.004;24.868;2023-04-02T05:57:46;97405.84;;;11.70;62.43
6532;BME280;3299;42.004;24.868;2023-04-02T06:00:19;97386.34;;;11.85;62.21
6532;BME280;3299;42.004;24.868;2023-04-02T06:02:56;97322.53;;;11.65;62.08
6532;BME280;3299;42.004;24.868;2023-04-02T06:05:31;97389.56;;;12.25;61.70
6532;BME280;3299;42.004;24.868;2023-04-02T06:08:15;97409.06;;;12.75;53.96
6532;BME280;3299;42.004;24.868;2023-04-02T06:10:54;97336.47;;;12.56;56.15
6532;BME280;3299;42.004;24.868;2023-04-02T06:13:22;97333.41;;;12.70;56.61
6532;BME280;3299;42.004;24.868;2023-04-02T06:15:48;97353.78;;;12.92;57.79
6532;BME280;3299;42.004;24.868;2023-04-02T06:18:25;97347.78;;;13.01;55.63
6532;BME280;3299;42.004;24.868;2023-04-02T06:20:51;97401.06;;;13.49;55.86
6532;BME280;3299;42.004;24.868;2023-04-02T06:23:18;97417.69;;;13.74;56.90
6532;BME280;3299;42.004;24.868;2023-04-02T06:25:49;97377.59;;;13.59;57.29
6532;BME280;3299;42.004;24.868;2023-04-02T06:28:21;97339.56;;;13.40;56.51
6532;BME280;3299;42.004;24.868;2023-04-02T06:30:52;97407.19;;;14.01;55.56
6532;BME280;3299;42.004;24.868;2023-04-02T06:33:18;97386.41;;;13.66;56.82
6532;BME280;3299;42.004;24.868;2023-04-02T06:35:44;97397.63;;;13.66;56.97
6532;BME280;3299;42.004;24.868;2023-04-02T06:38:16;97408.16;;;13.47;56.68
6532;BME280;3299;42.004;24.868;2023-04-02T06:40:52;97418.88;;;13.44;57.03
6532;BME280;3299;42.004;24.868;2023-04-02T06:45:52;97401.31;;;13.29;58.34
6532;BME280;3299;42.004;24.868;2023-04-02T06:48:19;97364.19;;;12.92;57.81
6532;BME280;3299;42.004;24.868;2023-04-02T06:51:00;97448.81;;;13.39;58.25
6532;BME280;3299;42.004;24.868;2023-04-02T06:53:40;97381.94;;;12.96;58.32
6532;BME280;3299;42.004;24.868;2023-04-02T06:56:42;97445.66;;;13.45;58.16
6532;BME280;3299;42.004;24.868;2023-04-02T06:59:09;97375.44;;;13.10;57.93
6532;BME280;3299;42.004;24.868;2023-04-02T07:01:49;97450.50;;;13.57;57.30
6532;BME280;3299;42.004;24.868;2023-04-02T07:04:17;97372.00;;;13.19;56.72
6532;BME280;3299;42.004;24.868;2023-04-02T07:06:43;97401.97;;;13.31;57.31
6532;BME280;3299;42.004;24.868;2023-04-02T07:09:09;97374.66;;;13.27;57.33
6532;BME280;3299;42.004;24.868;2023-04-02T07:11:35;97445.75;;;13.70;56.70
6532;BME280;3299;42.004;24.868;2023-04-02T07:14:00;97434.59;;;13.60;55.54
6532;BME280;3299;42.004;24.868;2023-04-02T07:16:29;97389.47;;;13.17;56.53
6532;BME280;3299;42.004;24.868;2023-04-02T07:18:55;97439.06;;;13.50;56.79
6532;BME280;3299;42.004;24.868;2023-04-02T07:21:23;97405.63;;;13.38;56.02
6532;BME280;3299;42.004;24.868;2023-04-02T07:23:49;97403.41;;;13.43;55.71
6532;BME280;3299;42.004;24.868;2023-04-02T07:26:17;97407.72;;;13.52;55.56
6532;BME280;3299;42.004;24.868;2023-04-02T07:28:43;97473.56;;;14.05;55.20
6532;BME280;3299;42.004;24.868;2023-04-02T07:31:19;97486.94;;;14.27;54.60
6532;BME280;3299;42.004;24.868;2023-04-02T07:33:45;97451.56;;;14.17;53.74
6532;BME280;3299;42.004;24.868;2023-04-02T07:36:16;97489.75;;;14.51;53.40
6532;BME280;3299;42.004;24.868;2023-04-02T07:38:42;97407.94;;;14.11;52.18
6532;BME280;3299;42.004;24.868;2023-04-02T07:41:07;97478.63;;;14.67;52.16
6532;BME280;3299;42.004;24.868;2023-04-02T07:43:33;97441.03;;;14.44;51.95
6532;BME280;3299;42.004;24.868;2023-04-02T07:46:00;97430.53;;;14.28;52.04
6532;BME280;3299;42.004;24.868;2023-04-02T07:48:26;97479.13;;;14.70;53.15
6532;BME280;3299;42.004;24.868;2023-04-02T07:50:51;97466.28;;;14.69;51.93
6532;BME280;3299;42.004;24.868;2023-04-02T07:53:35;97400.94;;;14.29;53.03
6532;BME280;3299;42.004;24.868;2023-04-02T07:56:02;97404.41;;;14.37;52.63
6532;BME280;3299;42.004;24.868;2023-04-02T07:58:29;97449.00;;;14.68;51.86
6532;BME280;3299;42.004;24.868;2023-04-02T08:00:56;97446.00;;;14.80;52.76
6532;BME280;3299;42.004;24.868;2023-04-02T08:03:21;97460.41;;;15.00;52.73
6532;BME280;3299;42.004;24.868;2023-04-02T08:05:51;97439.78;;;15.07;52.85
6532;BME280;3299;42.004;24.868;2023-04-02T08:08:17;97423.53;;;15.13;52.67
6532;BME280;3299;42.004;24.868;2023-04-02T08:10:42;97423.88;;;15.18;51.86
6532;BME280;3299;42.004;24.868;2023-04-02T08:13:08;97383.44;;;14.98;51.44
6532;BME280;3299;42.004;24.868;2023-04-02T08:15:33;97468.50;;;15.56;50.93
6532;BME280;3299;42.004;24.868;2023-04-02T08:17:59;97426.25;;;15.37;50.70
6532;BME280;3299;42.004;24.868;2023-04-02T08:20:24;97394.06;;;15.20;50.40
6532;BME280;3299;42.004;24.868;2023-04-02T08:22:52;97432.16;;;15.55;49.76
6532;BME280;3299;42.004;24.868;2023-04-02T08:25:18;97457.34;;;15.88;45.07
6532;BME280;3299;42.004;24.868;2023-04-02T08:27:46;97462.56;;;16.04;43.71
6532;BME280;3299;42.004;24.868;2023-04-02T08:30:14;97430.78;;;16.00;43.68
6532;BME280;3299;42.004;24.868;2023-04-02T08:32:40;97441.03;;;16.18;43.06
6532;BME280;3299;42.004;24.868;2023-04-02T08:35:06;97388.53;;;15.97;42.26
6532;BME280;3299;42.004;24.868;2023-04-02T08:37:32;97461.78;;;16.51;41.49
6532;BME280;3299;42.004;24.868;2023-04-02T08:39:58;97439.44;;;16.41;41.29
6532;BME280;3299;42.004;24.868;2023-04-02T08:42:40;97470.94;;;16.63;41.69
6532;BME280;3299;42.004;24.868;2023-04-02T08:48:13;97466.19;;;16.67;41.95
6532;BME280;3299;42.004;24.868;2023-04-02T08:50:41;97472.72;;;16.63;42.50
6532;BME280;3299;42.004;24.868;2023-04-02T08:53:35;97472.09;;;16.61;42.77
6532;BME280;3299;42.004;24.868;2023-04-02T08:56:12;97474.38;;;16.56;43.00
6532;BME280;3299;42.004;24.868;2023-04-02T08:58:57;97405.50;;;16.17;43.44
6532;BME280;3299;42.004;24.868;2023-04-02T09:04:00;97453.81;;;16.61;44.00
6532;BME280;3299;42.004;24.868;2023-04-02T09:06:28;97445.94;;;16.53;43.69
6532;BME280;3299;42.004;24.868;2023-04-02T09:08:54;97411.19;;;16.28;43.28
6532;BME280;3299;42.004;24.868;2023-04-02T09:14:26;97418.88;;;16.22;43.76
6532;BME280;3299;42.004;24.868;2023-04-02T09:17:01;97473.53;;;16.55;43.60
6532;BME280;3299;42.004;24.868;2023-04-02T09:19:35;97408.09;;;16.17;42.35
6532;BME280;3299;42.004;24.868;2023-04-02T09:22:04;97470.44;;;16.52;42.12
6532;BME280;3299;42.004;24.868;2023-04-02T09:24:30;97397.19;;;16.13;42.46
6532;BME280;3299;42.004;24.868;2023-04-02T09:26:56;97451.19;;;16.61;42.47
6532;BME280;3299;42.004;24.868;2023-04-02T09:29:30;97411.50;;;16.33;42.08
6532;BME280;3299;42.004;24.868;2023-04-02T09:34:48;97419.66;;;16.62;40.88
6532;BME280;3299;42.004;24.868;2023-04-02T09:37:17;97399.59;;;16.63;41.09
6532;BME280;3299;42.004;24.868;2023-04-02T09:39:43;97368.59;;;16.52;40.81
6532;BME280;3299;42.004;24.868;2023-04-02T09:42:31;97445.84;;;17.09;40.73
6532;BME280;3299;42.004;24.868;2023-04-02T09:47:41;97428.28;;;17.25;40.59
6532;BME280;3299;42.004;24.868;2023-04-02T09:50:26;97435.63;;;17.38;39.27
6532;BME280;3299;42.004;24.868;2023-04-02T09:52:53;97360.78;;;16.98;39.46
6532;BME280;3299;42.004;24.868;2023-04-02T09:57:46;97390.88;;;17.25;38.81
6532;BME280;3299;42.004;24.868;2023-04-02T10:00:24;97372.75;;;17.15;38.37
6532;BME280;3299;42.004;24.868;2023-04-02T10:03:06;97361.88;;;17.04;38.23
6532;BME280;3299;42.004;24.868;2023-04-02T10:05:39;97416.31;;;17.39;38.23
6532;BME280;3299;42.004;24.868;2023-04-02T10:10:44;97366.13;;;17.05;37.60
6532;BME280;3299;42.004;24.868;2023-04-02T10:13:24;97344.47;;;16.88;37.94
6532;BME280;3299;42.004;24.868;2023-04-02T10:15:59;97377.41;;;17.05;38.53
6532;BME280;3299;42.004;24.868;2023-04-02T10:21:05;97401.81;;;17.20;38.59
6532;BME280;3299;42.004;24.868;2023-04-02T10:23:31;97355.34;;;17.00;38.27
6532;BME280;3299;42.004;24.868;2023-04-02T10:31:29;97395.53;;;17.37;38.59
6532;BME280;3299;42.004;24.868;2023-04-02T10:34:04;97353.63;;;17.23;38.44
6532;BME280;3299;42.004;24.868;2023-04-02T10:36:53;97408.81;;;17.66;37.82
6532;BME280;3299;42.004;24.868;2023-04-02T10:44:58;97409.84;;;18.25;38.07
6532;BME280;3299;42.004;24.868;2023-04-02T10:50:22;97414.03;;;18.34;37.88
6532;BME280;3299;42.004;24.868;2023-04-02T10:55:29;97407.47;;;18.38;38.11
6532;BME280;3299;42.004;24.868;2023-04-02T10:57:59;97370.50;;;18.33;37.93
6532;BME280;3299;42.004;24.868;2023-04-02T11:00:30;97392.88;;;18.72;38.22
6532;BME280;3299;42.004;24.868;2023-04-02T11:03:43;97402.00;;;18.76;37.91
6532;BME280;3299;42.004;24.868;2023-04-02T11:08:46;97358.59;;;18.45;37.93
6532;BME280;3299;42.004;24.868;2023-04-02T11:11:33;97404.28;;;18.65;38.08
6532;BME280;3299;42.004;24.868;2023-04-02T11:14:16;97401.56;;;18.87;37.85
6532;BME280;3299;42.004;24.868;2023-04-02T11:16:42;97321.50;;;18.70;37.54
6532;BME280;3299;42.004;24.868;2023-04-02T11:19:18;97390.88;;;19.32;37.36
6532;BME280;3299;42.004;24.868;2023-04-02T11:27:26;97376.88;;;19.82;36.68
6532;BME280;3299;42.004;24.868;2023-04-02T11:34:59;97360.59;;;20.62;35.70
6532;BME280;3299;42.004;24.868;2023-04-02T11:40:42;97358.63;;;21.05;34.77
6532;BME280;3299;42.004;24.868;2023-04-02T11:45:56;97343.41;;;20.94;34.02
6532;BME280;3299;42.004;24.868;2023-04-02T11:50:48;97335.91;;;21.38;33.71
6532;BME280;3299;42.004;24.868;2023-04-02T11:55:42;97363.16;;;21.90;32.34
6532;BME280;3299;42.004;24.868;2023-04-02T11:58:39;97363.19;;;22.10;31.89
6532;BME280;3299;42.004;24.868;2023-04-02T12:01:28;97325.69;;;22.21;31.91
6532;BME280;3299;42.004;24.868;2023-04-02T12:04:10;97361.13;;;22.64;31.46
6532;BME280;3299;42.004;24.868;2023-04-02T12:09:26;97361.88;;;22.97;30.44
6532;BME280;3299;42.004;24.868;2023-04-02T12:11:55;97363.38;;;22.67;30.29
6532;BME280;3299;42.004;24.868;2023-04-02T12:14:43;97357.31;;;22.53;30.21
6532;BME280;3299;42.004;24.868;2023-04-02T12:17:23;97349.41;;;22.60;30.61
6532;BME280;3299;42.004;24.868;2023-04-02T12:19:51;97280.09;;;22.14;30.12
6532;BME280;3299;42.004;24.868;2023-04-02T12:22:21;97297.50;;;22.21;30.38
6532;BME280;3299;42.004;24.868;2023-04-02T12:24:47;97327.88;;;22.56;29.93
6532;BME280;3299;42.004;24.868;2023-04-02T12:27:18;97333.16;;;22.56;29.93
6532;BME280;3299;42.004;24.868;2023-04-02T12:29:47;97322.25;;;22.46;30.25
6532;BME280;3299;42.004;24.868;2023-04-02T12:32:29;97358.06;;;22.80;30.13
6532;BME280;3299;42.004;24.868;2023-04-02T12:35:02;97323.34;;;22.96;29.45
6532;BME280;3299;42.004;24.868;2023-04-02T12:37:29;97320.19;;;23.25;29.41
6532;BME280;3299;42.004;24.868;2023-04-02T12:39:57;97322.75;;;23.44;29.08
6532;BME280;3299;42.004;24.868;2023-04-02T12:42:32;97354.25;;;23.70;29.07
6532;BME280;3299;42.004;24.868;2023-04-02T12:44:59;97345.50;;;23.69;28.47
6532;BME280;3299;42.004;24.868;2023-04-02T12:47:26;97336.06;;;23.86;28.47
6532;BME280;3299;42.004;24.868;2023-04-02T12:49:53;97279.19;;;23.53;28.37
6532;BME280;3299;42.004;24.868;2023-04-02T12:52:20;97271.38;;;23.34;28.15
6532;BME280;3299;42.004;24.868;2023-04-02T12:54:55;97331.66;;;24.12;28.38
6532;BME280;3299;42.004;24.868;2023-04-02T12:59:50;97263.88;;;23.92;27.48
6532;BME280;3299;42.004;24.868;2023-04-02T13:02:44;97346.16;;;24.51;28.14
6532;BME280;3299;42.004;24.868;2023-04-02T13:05:10;97352.50;;;24.68;27.60
6532;BME280;3299;42.004;24.868;2023-04-02T13:07:36;97319.16;;;24.43;26.95
6532;BME280;3299;42.004;24.868;2023-04-02T13:10:22;97280.56;;;23.86;27.85
6532;BME280;3299;42.004;24.868;2023-04-02T13:12:53;97269.31;;;23.42;28.17
6532;BME280;3299;42.004;24.868;2023-04-02T13:15:22;97274.94;;;23.21;28.01
6532;BME280;3299;42.004;24.868;2023-04-02T13:20:39;97312.78;;;22.89;29.04
6532;BME280;3299;42.004;24.868;2023-04-02T13:23:30;97335.75;;;22.89;29.13
6532;BME280;3299;42.004;24.868;2023-04-02T13:26:09;97346.94;;;22.78;29.25
6532;BME280;3299;42.004;24.868;2023-04-02T13:28:36;97292.03;;;22.49;29.26
6532;BME280;3299;42.004;24.868;2023-04-02T13:31:01;97267.28;;;22.24;29.60
6532;BME280;3299;42.004;24.868;2023-04-02T13:33:27;97264.66;;;22.24;29.59
6532;BME280;3299;42.004;24.868;2023-04-02T13:35:52;97316.94;;;22.53;29.31
6532;BME280;3299;42.004;24.868;2023-04-02T13:38:17;97323.44;;;22.57;29.73
6532;BME280;3299;42.004;24.868;2023-04-02T13:40:43;97316.75;;;22.54;29.67
6532;BME280;3299;42.004;24.868;2023-04-02T13:43:15;97321.81;;;22.43;29.51
6532;BME280;3299;42.004;24.868;2023-04-02T13:45:41;97307.22;;;22.21;30.23
6532;BME280;3299;42.004;24.868;2023-04-02T13:48:13;97264.66;;;22.04;30.04
6532;BME280;3299;42.004;24.868;2023-04-02T13:50:40;97295.09;;;22.20;30.30
6532;BME280;3299;42.004;24.868;2023-04-02T13:53:07;97298.72;;;22.19;30.43
6532;BME280;3299;42.004;24.868;2023-04-02T13:55:40;97274.63;;;22.09;30.21
6532;BME280;3299;42.004;24.868;2023-04-02T13:58:06;97323.44;;;22.18;30.15
6532;BME280;3299;42.004;24.868;2023-04-02T14:00:34;97306.03;;;21.91;30.33
6532;BME280;3299;42.004;24.868;2023-04-02T14:03:09;97259.78;;;21.62;30.72
6532;BME280;3299;42.004;24.868;2023-04-02T14:08:29;97316.56;;;22.04;30.70
6532;BME280;3299;42.004;24.868;2023-04-02T14:11:39;97317.75;;;21.95;30.79
6532;BME280;3299;42.004;24.868;2023-04-02T14:31:01;97289.63;;;21.03;33.51
6532;BME280;3299;42.004;24.868;2023-04-02T14:41:24;97292.03;;;21.04;32.64
6532;BME280;3299;42.004;24.868;2023-04-02T14:43:55;97300.13;;;20.96;34.75
6532;BME280;3299;42.004;24.868;2023-04-02T14:46:26;97275.31;;;20.78;34.45
6532;BME280;3299;42.004;24.868;2023-04-02T14:48:56;97306.41;;;20.95;34.33
6532;BME280;3299;42.004;24.868;2023-04-02T14:55:03;97298.47;;;20.89;33.89
6532;BME280;3299;42.004;24.868;2023-04-02T14:57:36;97258.66;;;20.58;33.74
6532;BME280;3299;42.004;24.868;2023-04-02T15:05:23;97308.28;;;20.74;34.74
6532;BME280;3299;42.004;24.868;2023-04-02T15:10:47;97312.50;;;20.68;33.07
6532;BME280;3299;42.004;24.868;2023-04-02T15:13:20;97242.84;;;20.11;33.56
6532;BME280;3299;42.004;24.868;2023-04-02T15:15:53;97264.28;;;20.21;34.15
6532;BME280;3299;42.004;24.868;2023-04-02T15:18:20;97265.72;;;20.17;34.43
6532;BME280;3299;42.004;24.868;2023-04-02T15:41:29;97310.22;;;20.04;35.11
6532;BME280;3299;42.004;24.868;2023-04-02T15:51:14;97270.19;;;19.74;35.83
6532;BME280;3299;42.004;24.868;2023-04-02T15:53:45;97319.56;;;19.85;36.92
6532;BME280;3299;42.004;24.868;2023-04-02T15:56:25;97315.75;;;19.67;39.31
6532;BME280;3299;42.004;24.868;2023-04-02T15:59:34;97313.28;;;19.23;41.14
6532;BME280;3299;42.004;24.868;2023-04-02T16:03:15;97319.84;;;18.98;41.74
6532;BME280;3299;42.004;24.868;2023-04-02T16:05:47;97289.56;;;18.96;38.14
6532;BME280;3299;42.004;24.868;2023-04-02T16:10:59;97321.59;;;19.27;37.11
6532;BME280;3299;42.004;24.868;2023-04-02T16:13:32;97309.78;;;19.02;39.74
6532;BME280;3299;42.004;24.868;2023-04-02T16:16:12;97292.09;;;18.75;41.22
6532;BME280;3299;42.004;24.868;2023-04-02T16:21:33;97319.16;;;17.95;43.71
6532;BME280;3299;42.004;24.868;2023-04-02T16:24:01;97251.88;;;17.44;43.46
6532;BME280;3299;42.004;24.868;2023-04-02T16:31:56;97335.41;;;17.45;44.48
6532;BME280;3299;42.004;24.868;2023-04-02T16:34:38;97336.56;;;17.43;44.41
6532;BME280;3299;42.004;24.868;2023-04-02T16:47:51;97337.22;;;16.68;46.44
6532;BME280;3299;42.004;24.868;2023-04-02T16:55:59;97337.28;;;16.44;46.95
6532;BME280;3299;42.004;24.868;2023-04-02T17:07:09;97282.88;;;15.93;47.43
6532;BME280;3299;42.004;24.868;2023-04-02T17:09:48;97290.03;;;15.99;47.43
6532;BME280;3299;42.004;24.868;2023-04-02T17:12:20;97274.91;;;15.94;47.34
6532;BME280;3299;42.004;24.868;2023-04-02T17:14:51;97324.59;;;16.17;47.33
6532;BME280;3299;42.004;24.868;2023-04-02T17:17:19;97341.22;;;16.40;45.42
6532;BME280;3299;42.004;24.868;2023-04-02T17:19:46;97262.94;;;16.08;43.37
6532;BME280;3299;42.004;24.868;2023-04-02T17:22:19;97347.66;;;16.60;44.07
6532;BME280;3299;42.004;24.868;2023-04-02T17:24:57;97298.47;;;16.25;45.18
6532;BME280;3299;42.004;24.868;2023-04-02T17:29:50;97318.09;;;15.97;45.83
6532;BME280;3299;42.004;24.868;2023-04-02T17:32:23;97350.72;;;15.93;45.85
6532;BME280;3299;42.004;24.868;2023-04-02T17:34:50;97319.38;;;15.61;46.18
6532;BME280;3299;42.004;24.868;2023-04-02T17:37:27;97380.03;;;15.79;46.18
6532;BME280;3299;42.004;24.868;2023-04-02T17:48:04;97350.50;;;15.38;46.42
6532;BME280;3299;42.004;24.868;2023-04-02T17:55:29;97407.94;;;15.70;46.30
6532;BME280;3299;42.004;24.868;2023-04-02T18:03:35;97427.16;;;15.85;45.99
6532;BME280;3299;42.004;24.868;2023-04-02T18:11:33;97436.66;;;15.94;45.51
6532;BME280;3299;42.004;24.868;2023-04-02T18:20:10;97335.03;;;15.45;46.04
6532;BME280;3299;42.004;24.868;2023-04-02T18:25:44;97422.78;;;15.94;45.96
6532;BME280;3299;42.004;24.868;2023-04-02T18:28:40;97419.16;;;15.71;47.00
6532;BME280;3299;42.004;24.868;2023-04-02T18:39:37;97447.97;;;15.53;47.34
6532;BME280;3299;42.004;24.868;2023-04-02T18:45:13;97454.97;;;15.53;46.80